createdAt,value
2023-01-11T00:07:14.080Z,83.31
2023-01-11T00:17:14.017Z,83.30
2023-01-11T00:27:14.152Z,83.26
2023-01-11T00:37:14.167Z,83.16
2023-01-11T00:47:32.374Z,83.09
2023-01-11T00:57:32.195Z,83.01
2023-01-11T01:07:32.210Z,82.99
2023-01-11T01:17:32.207Z,82.98
2023-01-11T01:27:32.195Z,82.96
2023-01-11T01:37:32.212Z,82.91
2023-01-11T01:47:32.195Z,82.93
2023-01-11T01:57:32.305Z,82.91
2023-01-11T02:07:32.258Z,82.84
2023-01-11T02:17:32.229Z,82.77
2023-01-11T02:27:32.295Z,82.77
2023-01-11T02:37:35.292Z,82.94
2023-01-11T02:47:35.282Z,83.33
2023-01-11T02:57:35.597Z,83.75
2023-01-11T03:07:35.320Z,84.04
2023-01-11T03:17:35.240Z,84.28
2023-01-11T03:27:35.390Z,84.45
2023-01-11T03:37:35.490Z,84.50
2023-01-11T03:47:35.399Z,84.58
2023-01-11T03:57:35.353Z,84.89
2023-01-11T04:07:35.424Z,85.10
2023-01-11T04:17:35.401Z,85.27
2023-01-11T04:27:35.539Z,85.43
2023-01-11T04:37:35.390Z,85.55
2023-01-11T04:47:35.384Z,85.63
2023-01-11T04:57:35.390Z,85.71
2023-01-11T05:07:35.443Z,85.86
2023-01-11T05:17:35.424Z,85.97
2023-01-11T05:27:35.488Z,86.12
2023-01-11T05:37:36.238Z,86.14
2023-01-11T05:47:36.454Z,86.31
2023-01-11T05:57:36.527Z,86.40
2023-01-11T06:07:37.111Z,86.56
2023-01-11T06:17:38.697Z,86.64
2023-01-11T06:27:38.677Z,86.65
2023-01-11T06:37:38.555Z,86.68
2023-01-11T06:47:38.541Z,86.80
2023-01-11T06:57:38.639Z,86.85
2023-01-11T07:07:38.667Z,86.90
2023-01-11T07:17:38.656Z,87.00
2023-01-11T07:27:38.621Z,87.09
2023-01-11T07:37:40.591Z,87.18
2023-01-11T07:47:40.688Z,87.30
2023-01-11T07:57:40.684Z,87.38
2023-01-11T08:07:40.767Z,87.44
2023-01-11T08:17:40.715Z,87.40
2023-01-11T08:27:41.633Z,87.43
2023-01-11T08:37:41.777Z,87.46
2023-01-11T08:47:41.764Z,87.28
2023-01-11T08:57:44.693Z,87.35
2023-01-11T09:07:44.770Z,87.46
2023-01-11T09:17:44.927Z,87.53
2023-01-11T09:27:44.876Z,87.64
2023-01-11T09:37:46.638Z,87.75
2023-01-11T09:47:47.036Z,87.73
2023-01-11T09:57:46.982Z,87.77
2023-01-11T10:07:49.291Z,87.60
2023-01-11T10:18:40.324Z,87.65
2023-01-11T10:27:54.523Z,87.46
2023-01-11T10:38:00.347Z,87.57
2023-01-11T10:48:22.159Z,87.28
2023-01-11T10:58:21.876Z,86.60
2023-01-11T11:08:23.730Z,86.26
2023-01-11T11:18:23.865Z,85.77
2023-01-11T11:28:23.896Z,85.64
2023-01-11T11:38:23.927Z,84.46
2023-01-11T11:48:23.909Z,84.49
2023-01-11T11:58:23.983Z,83.19
2023-01-11T12:08:24.598Z,82.88
2023-01-11T12:18:25.274Z,82.55
2023-01-11T12:28:26.893Z,82.36
2023-01-11T12:38:26.989Z,82.03
2023-01-11T12:48:27.208Z,81.56
2023-01-11T12:58:27.101Z,81.64
2023-01-11T13:08:27.124Z,81.59
2023-01-11T13:18:27.307Z,81.40
2023-01-11T13:28:27.125Z,80.66
2023-01-11T13:38:27.127Z,80.27
2023-01-11T13:48:27.101Z,80.15
2023-01-11T13:58:28.624Z,79.64
2023-01-11T14:08:32.117Z,79.09
2023-01-11T14:18:32.156Z,78.71
2023-01-11T14:28:32.260Z,78.54
2023-01-11T14:38:32.168Z,78.08
2023-01-11T14:48:33.914Z,77.75
2023-01-11T14:58:34.332Z,77.95
2023-01-11T15:08:34.225Z,77.97
2023-01-11T15:18:34.404Z,77.96
2023-01-11T15:28:34.306Z,78.07
2023-01-11T15:38:34.240Z,78.17
2023-01-11T15:48:34.341Z,78.21
2023-01-11T15:58:34.408Z,78.44
2023-01-11T16:08:34.356Z,78.60
2023-01-11T16:18:34.362Z,78.74
2023-01-11T16:28:34.366Z,78.73
2023-01-11T16:38:34.352Z,78.76
2023-01-11T16:48:34.367Z,78.65
2023-01-11T16:58:34.458Z,78.30
2023-01-11T17:08:35.083Z,78.12
2023-01-11T17:18:35.373Z,77.96
2023-01-11T17:28:35.489Z,78.19
2023-01-11T17:38:35.505Z,78.37
2023-01-11T17:48:35.483Z,78.48
2023-01-11T17:58:35.466Z,78.43
2023-01-11T18:08:35.402Z,78.03
2023-01-11T18:18:35.493Z,77.71
2023-01-11T18:28:36.073Z,77.38
2023-01-11T18:38:36.445Z,77.07
2023-01-11T18:48:36.452Z,76.92
2023-01-11T18:58:36.567Z,76.84
2023-01-11T19:08:36.453Z,76.65
2023-01-11T19:18:36.477Z,76.68
2023-01-11T19:28:36.479Z,76.77
2023-01-11T19:38:36.515Z,76.88
2023-01-11T19:48:36.536Z,76.89
2023-01-11T19:58:36.590Z,76.79
2023-01-11T20:08:38.070Z,76.62
2023-01-11T20:18:38.751Z,76.57
2023-01-11T20:28:38.637Z,76.50
2023-01-11T20:38:38.664Z,76.40
2023-01-11T20:48:38.671Z,76.31
2023-01-11T20:58:38.671Z,76.17
2023-01-11T21:08:38.708Z,76.02
2023-01-11T21:18:38.819Z,75.89
2023-01-11T21:28:38.682Z,75.51
2023-01-11T21:38:38.673Z,75.63
2023-01-11T21:48:38.703Z,75.92
2023-01-11T21:58:38.719Z,76.00
2023-01-11T22:08:39.231Z,76.12
2023-01-11T22:18:40.564Z,76.58
2023-01-11T22:29:00.223Z,77.00
2023-01-11T22:39:00.822Z,77.10
2023-01-11T22:49:00.710Z,77.10
2023-01-11T22:59:00.836Z,76.92
2023-01-11T23:09:05.815Z,76.76
2023-01-11T23:19:05.725Z,76.66
2023-01-11T23:29:05.768Z,76.87
2023-01-11T23:39:05.895Z,77.44
2023-01-11T23:49:05.876Z,78.00
2023-01-11T23:59:05.807Z,78.49
